Time;durP1;ratioP1;P1;durP2;ratioP2;P2;SDS_P1;SDS_P2;PMS_P1;PMS_P2;Temp;Humidity;BMP_temperature;BMP_pressure;BME280_temperature;BME280_humidity;BME280_pressure;Samples;Min_cycle;Max_cycle;Signal;HPM_P1;HPM_P2
2022/06/19 00:01:04;;;;;;;0.40;0.40;;;21.10;58.60;;;21.54;42.33;95056.88;5035663;28;20219;-77
2022/06/19 00:03:38;;;;;;;0.30;0.30;;;21.00;58.20;;;21.52;42.31;95056.31;5050030;28;20230;-77
2022/06/19 00:06:06;;;;;;;0.30;0.30;;;21.00;58.80;;;21.48;42.16;95058.69;5051805;28;20246;-78
2022/06/19 00:08:33;;;;;;;0.40;0.40;;;21.00;58.70;;;21.42;42.33;95049.88;5052018;28;20207;-78
2022/06/19 00:11:03;;;;;;;0.40;0.40;;;20.90;58.70;;;21.40;42.53;95051.97;5055098;28;20226;-78
2022/06/19 00:13:31;;;;;;;0.40;0.40;;;20.80;59.10;;;21.36;42.15;95047.41;5053400;28;20205;-78
2022/06/19 00:15:59;;;;;;;0.45;0.45;;;20.80;58.90;;;21.31;42.84;95050.03;5051052;28;20239;-78
2022/06/19 00:18:26;;;;;;;0.40;0.40;;;20.80;59.20;;;21.22;43.21;95037.16;5040242;28;20637;-78
2022/06/19 00:20:53;;;;;;;0.32;0.32;;;20.70;59.10;;;21.20;43.16;95043.81;5055140;28;20220;-77
2022/06/19 00:23:20;;;;;;;0.40;0.40;;;20.70;59.20;;;21.13;42.86;95037.91;5043609;28;20285;-77
2022/06/19 00:25:48;;;;;;;0.40;0.40;;;20.70;59.30;;;21.08;43.36;95044.00;5069391;28;20222;-78
2022/06/19 00:28:15;;;;;;;0.40;0.40;;;20.60;59.40;;;21.05;43.06;95045.31;5038476;28;20272;-77
2022/06/19 00:30:42;;;;;;;0.30;0.30;;;20.60;59.50;;;21.01;43.09;95040.75;5072712;28;20465;-78
2022/06/19 00:33:10;;;;;;;0.40;0.40;;;20.50;59.70;;;20.92;43.52;95032.41;5062462;28;20624;-77
2022/06/19 00:35:37;;;;;;;0.47;0.47;;;20.50;59.70;;;20.92;43.54;95033.22;5034779;28;20210;-78
2022/06/19 00:38:04;;;;;;;0.43;0.43;;;20.50;59.70;;;20.90;43.43;95031.88;5051090;28;20196;-78
2022/06/19 00:40:32;;;;;;;0.35;0.35;;;20.50;59.80;;;20.89;43.79;95032.94;5050766;28;20230;-78
2022/06/19 00:43:00;;;;;;;0.40;0.40;;;20.40;60.00;;;20.88;43.61;95031.31;5039487;28;20268;-77
2022/06/19 00:45:42;;;;;;;0.40;0.40;;;20.40;59.90;;;20.84;43.69;95028.34;5034250;28;20230;-78
2022/06/19 00:48:16;;;;;;;0.40;0.40;;;20.30;60.50;;;20.81;44.06;95025.38;5034885;28;20199;-78
2022/06/19 00:50:46;;;;;;;0.40;0.40;;;20.40;60.70;;;20.77;44.17;95023.22;5051126;28;20219;-78
2022/06/19 00:53:22;;;;;;;0.40;0.40;;;20.30;60.40;;;20.75;44.28;95033.34;5033536;28;20233;-78
2022/06/19 00:55:50;;;;;;;0.50;0.50;;;20.20;60.40;;;20.71;44.11;95021.53;5050111;28;20265;-77
2022/06/19 00:58:21;;;;;;;0.40;0.40;;;20.30;60.30;;;20.73;44.10;95032.00;5034649;28;20284;-77
2022/06/19 01:01:00;;;;;;;0.40;0.40;;;20.20;60.70;;;20.71;43.89;95028.75;5050336;28;20220;-78
2022/06/19 01:03:46;;;;;;;0.40;0.40;;;20.20;60.80;;;20.68;44.48;95032.72;5065607;28;20637;-77
2022/06/19 01:06:13;;;;;;;0.50;0.50;;;20.20;60.90;;;20.65;44.01;95019.88;5046704;28;20231;-78
2022/06/19 01:08:41;;;;;;;0.40;0.40;;;20.20;60.60;;;20.61;44.13;95011.59;5030968;28;20572;-78
2022/06/19 01:11:08;;;;;;;0.40;0.40;;;20.10;60.70;;;20.60;44.59;95018.00;5021878;28;20317;-77
2022/06/19 01:13:36;;;;;;;0.40;0.40;;;20.10;60.80;;;20.57;44.48;95015.81;5050529;28;20571;-78
2022/06/19 01:16:05;;;;;;;0.40;0.40;;;20.10;61.00;;;20.58;44.74;95017.44;5033849;28;20623;-77
2022/06/19 01:18:34;;;;;;;0.40;0.40;;;20.10;61.10;;;20.55;44.64;95017.13;5067266;28;20238;-77
2022/06/19 01:21:36;;;;;;;0.40;0.40;;;20.00;61.20;;;20.51;44.88;95013.34;5034226;28;20245;-77
2022/06/19 01:24:22;;;;;;;0.50;0.50;;;20.00;61.50;;;20.45;45.08;95013.31;5062455;28;20203;-78
2022/06/19 01:26:53;;;;;;;0.40;0.40;;;20.00;61.50;;;20.46;45.31;95017.59;5050846;28;20195;-78
2022/06/19 01:29:20;;;;;;;0.30;0.30;;;20.00;61.30;;;20.43;44.67;95012.78;5035611;28;20210;-77
2022/06/19 01:31:53;;;;;;;0.40;0.40;;;19.90;61.20;;;20.39;45.26;95003.66;5037639;28;20210;-78
2022/06/19 01:34:29;;;;;;;0.40;0.40;;;19.90;61.50;;;20.34;45.31;94995.63;5021658;28;20195;-78
2022/06/19 01:37:20;;;;;;;0.50;0.50;;;19.90;61.70;;;20.29;44.90;95007.03;5038125;28;20286;-77
2022/06/19 01:40:25;;;;;;;0.40;0.40;;;19.90;61.40;;;20.24;45.08;95001.66;5054660;28;20314;-77
2022/06/19 01:42:54;;;;;;;0.40;0.40;;;19.90;61.30;;;20.23;45.02;94997.38;5019877;28;20203;-77
2022/06/19 01:45:22;;;;;;;0.30;0.30;;;19.80;61.30;;;20.21;44.98;95004.00;5038397;28;20211;-77
2022/06/19 01:47:49;;;;;;;0.40;0.40;;;19.70;61.50;;;20.19;45.44;94996.28;5054481;28;20199;-78
2022/06/19 01:50:26;;;;;;;0.40;0.40;;;19.80;61.50;;;20.17;45.86;94998.38;5037388;28;20215;-78
2022/06/19 01:53:00;;;;;;;0.40;0.40;;;19.70;62.10;;;20.15;45.87;94995.97;5037689;28;20574;-77
2022/06/19 01:55:28;;;;;;;0.40;0.40;;;19.70;62.00;;;20.13;45.65;94987.41;5033666;28;20219;-78
2022/06/19 01:57:57;;;;;;;0.40;0.40;;;19.60;61.70;;;20.12;45.95;94985.81;5018131;28;20694;-78
2022/06/19 02:00:28;;;;;;;0.40;0.40;;;19.70;62.10;;;20.11;46.23;94984.19;5017758;28;20679;-77
2022/06/19 02:03:08;;;;;;;0.40;0.40;;;19.60;62.10;;;20.10;45.87;94977.28;5044851;28;20199;-77
2022/06/19 02:05:37;;;;;;;0.40;0.40;;;19.60;62.40;;;20.08;46.28;94989.22;5037603;28;20219;-77
2022/06/19 02:08:06;;;;;;;0.40;0.40;;;19.60;62.20;;;20.05;46.32;94977.22;5037521;28;20238;-77
2022/06/19 02:10:40;;;;;;;0.45;0.45;;;19.60;62.10;;;20.03;45.96;94979.34;5054058;28;20610;-78
2022/06/19 02:13:10;;;;;;;0.40;0.40;;;19.60;62.20;;;19.98;46.21;94976.59;5036194;28;20195;-78
2022/06/19 02:15:38;;;;;;;0.40;0.40;;;19.60;62.40;;;19.94;46.14;94972.84;5036948;28;20219;-77
2022/06/19 02:18:17;;;;;;;0.40;0.40;;;19.50;62.40;;;19.91;46.67;94976.78;5038142;28;20282;-78
2022/06/19 02:20:45;;;;;;;0.40;0.40;;;19.50;63.00;;;19.85;46.22;94961.81;5053426;28;20301;-77
2022/06/19 02:23:12;;;;;;;0.40;0.40;;;19.50;62.50;;;19.83;46.63;94962.09;5054883;28;20195;-78
2022/06/19 02:25:44;;;;;;;0.40;0.40;;;19.40;62.60;;;19.80;46.50;94970.53;5053863;28;20207;-77
2022/06/19 02:28:12;;;;;;;0.40;0.40;;;19.40;63.00;;;19.77;46.87;94967.56;5037753;28;20194;-78
2022/06/19 02:30:40;;;;;;;0.40;0.40;;;19.30;62.90;;;19.70;46.63;94957.09;5037268;28;20226;-77
2022/06/19 02:33:14;;;;;;;0.40;0.40;;;19.30;62.90;;;19.70;46.79;94964.28;5052114;28;20286;-77
2022/06/19 02:35:42;;;;;;;0.40;0.40;;;19.30;63.00;;;19.65;46.76;94957.84;5037017;28;20228;-77
2022/06/19 02:38:15;;;;;;;0.40;0.40;;;19.30;63.00;;;19.61;47.16;94951.38;5053799;28;20229;-77
2022/06/19 02:41:27;;;;;;;0.50;0.50;;;19.20;62.80;;;19.52;47.14;94943.03;5052252;28;20249;-77
2022/06/19 02:43:54;;;;;;;0.40;0.40;;;19.10;62.70;;;19.52;47.17;94950.22;5035208;28;20199;-77
2022/06/19 02:46:21;;;;;;;0.40;0.40;;;19.10;62.80;;;19.47;47.56;94943.00;5036941;28;20211;-77
2022/06/19 02:48:49;;;;;;;0.47;0.47;;;19.10;62.80;;;19.45;47.11;94944.28;5037008;28;20685;-77
2022/06/19 02:51:16;;;;;;;0.40;0.40;;;19.00;62.70;;;19.40;47.91;94955.66;5053497;28;20223;-77
2022/06/19 02:53:44;;;;;;;0.40;0.40;;;19.00;62.70;;;19.36;47.39;94947.38;5052907;28;20282;-78
2022/06/19 02:56:10;;;;;;;0.50;0.50;;;19.00;63.00;;;19.32;47.64;94948.09;5053391;28;20234;-78
2022/06/19 02:58:37;;;;;;;0.40;0.40;;;19.10;63.20;;;19.30;47.64;94945.69;5053491;28;20192;-77
2022/06/19 03:01:05;;;;;;;0.45;0.45;;;18.90;63.10;;;19.29;47.64;94937.97;5036567;28;20231;-77
2022/06/19 03:03:38;;;;;;;0.50;0.50;;;18.90;63.30;;;19.27;47.53;94934.75;5051915;28;20287;-77
2022/06/19 03:06:06;;;;;;;0.45;0.45;;;18.90;63.60;;;19.27;48.18;94932.88;5037021;28;20622;-77
2022/06/19 03:08:34;;;;;;;0.40;0.40;;;18.80;63.50;;;19.27;47.67;94918.78;5053197;28;20235;-77
2022/06/19 03:11:05;;;;;;;0.40;0.40;;;18.80;63.60;;;19.25;48.54;94919.03;5035697;28;20226;-78
2022/06/19 03:13:32;;;;;;;0.47;0.47;;;18.80;64.10;;;19.27;48.18;94916.13;5036354;28;20210;-77
2022/06/19 03:16:07;;;;;;;0.45;0.45;;;18.80;63.80;;;19.24;48.73;94909.44;5069436;28;20594;-77
2022/06/19 03:18:36;;;;;;;0.40;0.40;;;18.80;64.40;;;19.27;47.88;94908.94;5036872;28;20202;-78
2022/06/19 03:21:05;;;;;;;0.40;0.40;;;18.90;64.20;;;19.29;48.16;94908.72;5050229;28;20247;-78
2022/06/19 03:23:32;;;;;;;0.40;0.40;;;18.80;63.90;;;19.29;48.27;94900.75;5027042;28;20200;-77
2022/06/19 03:25:59;;;;;;;0.50;0.50;;;18.80;64.00;;;19.30;48.39;94897.03;5024055;28;20216;-77
2022/06/19 03:28:29;;;;;;;0.60;0.60;;;18.80;64.00;;;19.31;48.49;94903.94;5052609;28;20210;-77
2022/06/19 03:30:56;;;;;;;0.50;0.50;;;18.90;64.50;;;19.34;48.40;94906.13;5045818;28;20228;-77
2022/06/19 03:33:23;;;;;;;0.50;0.50;;;18.90;64.30;;;19.35;48.72;94902.41;5042707;28;20199;-77
2022/06/19 03:35:54;;;;;;;0.40;0.40;;;18.90;65.30;;;19.33;49.19;94899.19;5052397;28;20207;-77
2022/06/19 03:38:21;;;;;;;0.50;0.50;;;18.90;64.70;;;19.36;48.75;94898.69;5036701;28;20199;-76
2022/06/19 03:40:49;;;;;;;0.43;0.43;;;18.90;64.40;;;19.34;49.01;94890.94;5052759;28;20223;-77
2022/06/19 03:43:16;;;;;;;0.50;0.50;;;18.90;64.40;;;19.32;49.07;94895.72;5049066;28;20200;-77
2022/06/19 03:45:44;;;;;;;0.45;0.45;;;19.00;64.50;;;19.36;49.25;94888.06;5030742;28;20207;-78
2022/06/19 03:48:12;;;;;;;0.40;0.40;;;19.00;64.60;;;19.38;49.09;94885.16;5051706;28;20214;-77
2022/06/19 03:50:41;;;;;;;0.40;0.40;;;19.00;64.80;;;19.40;49.15;94883.84;5017238;28;20242;-78
2022/06/19 03:53:09;;;;;;;0.40;0.40;;;19.00;64.60;;;19.41;49.44;94879.31;5048317;28;20213;-77
2022/06/19 03:55:36;;;;;;;0.50;0.50;;;18.90;64.70;;;19.44;49.33;94876.19;5034736;28;20219;-77
2022/06/19 03:58:04;;;;;;;0.40;0.40;;;19.00;64.70;;;19.49;49.41;94876.22;5052360;28;20219;-78
2022/06/19 04:00:31;;;;;;;0.60;0.60;;;19.10;64.90;;;19.52;49.22;94879.19;5051474;28;20226;-77
2022/06/19 04:02:59;;;;;;;0.50;0.50;;;19.00;64.70;;;19.57;49.63;94882.97;5052229;28;20544;-79
2022/06/19 04:05:26;;;;;;;0.50;0.50;;;19.10;64.90;;;19.61;49.39;94879.56;5035399;28;20247;-78
2022/06/19 04:07:54;;;;;;;0.50;0.50;;;19.20;65.10;;;19.61;49.55;94876.88;5035264;28;20207;-78
2022/06/19 04:10:21;;;;;;;0.40;0.40;;;19.20;65.10;;;19.70;49.35;94881.78;5034550;28;20207;-77
2022/06/19 04:12:53;;;;;;;0.40;0.40;;;19.20;65.20;;;19.73;49.71;94882.09;5034854;28;20658;-78
2022/06/19 04:15:21;;;;;;;0.50;0.50;;;19.30;65.20;;;19.76;49.33;94881.59;5051674;28;20245;-78
2022/06/19 04:17:48;;;;;;;0.40;0.40;;;19.30;65.20;;;19.78;49.80;94876.81;5035561;28;20202;-78
2022/06/19 04:20:15;;;;;;;0.50;0.50;;;19.40;65.30;;;19.85;49.27;94876.66;5034277;28;20226;-78
2022/06/19 04:22:42;;;;;;;0.40;0.40;;;19.50;65.40;;;19.91;49.74;94870.31;5034177;28;20581;-77
2022/06/19 04:25:13;;;;;;;0.40;0.40;;;19.50;65.40;;;19.97;50.00;94863.19;5034069;28;20337;-77
2022/06/19 04:27:43;;;;;;;0.40;0.40;;;19.60;65.50;;;20.04;49.72;94863.78;5035485;28;20235;-78
2022/06/19 04:30:12;;;;;;;0.50;0.50;;;19.60;65.60;;;20.11;49.58;94866.25;5050069;28;20219;-78
2022/06/19 04:32:39;;;;;;;0.40;0.40;;;19.70;65.60;;;20.17;49.48;94870.56;5033848;28;20207;-78
2022/06/19 04:35:07;;;;;;;0.50;0.50;;;19.70;65.60;;;20.22;49.91;94859.16;5034797;28;20581;-78
2022/06/19 04:37:34;;;;;;;0.40;0.40;;;19.70;65.60;;;20.26;49.81;94869.03;5051418;28;20295;-78
2022/06/19 04:40:03;;;;;;;0.40;0.40;;;19.80;65.70;;;20.30;49.98;94864.81;5051362;28;20582;-78
2022/06/19 04:42:31;;;;;;;0.40;0.40;;;19.90;65.70;;;20.36;49.97;94863.00;5033711;28;20218;-77
2022/06/19 04:44:58;;;;;;;0.50;0.50;;;20.00;65.80;;;20.43;50.00;94860.09;5051445;28;20233;-78
2022/06/19 04:47:25;;;;;;;0.50;0.50;;;20.10;65.90;;;20.46;49.93;94856.94;5051133;28;20198;-78
2022/06/19 04:49:52;;;;;;;0.40;0.40;;;20.10;66.00;;;20.56;50.02;94869.53;5051077;28;20743;-78
2022/06/19 04:52:20;;;;;;;0.40;0.40;;;20.20;66.00;;;20.59;50.53;94867.16;5050567;28;20199;-78
2022/06/19 04:54:47;;;;;;;0.50;0.50;;;20.30;66.30;;;20.65;50.70;94859.97;5032987;28;20230;-78
2022/06/19 04:57:14;;;;;;;0.50;0.50;;;20.30;66.20;;;20.73;50.89;94867.53;5034785;28;20641;-78
2022/06/19 04:59:43;;;;;;;0.40;0.40;;;20.40;66.20;;;20.80;50.34;94870.00;5051530;28;20285;-78
2022/06/19 05:02:12;;;;;;;0.50;0.50;;;20.40;66.20;;;20.88;50.68;94858.03;5034231;28;20676;-78
2022/06/19 05:04:40;;;;;;;0.40;0.40;;;20.50;66.50;;;20.93;50.83;94858.88;5034513;28;20218;-78
2022/06/19 05:07:07;;;;;;;0.40;0.40;;;20.60;66.40;;;21.02;50.97;94851.19;5050860;28;20211;-78
2022/06/19 05:09:34;;;;;;;0.40;0.40;;;20.60;66.50;;;21.11;50.61;94849.59;5033410;28;20222;-78
2022/06/19 05:12:01;;;;;;;0.40;0.40;;;20.80;66.50;;;21.20;50.51;94857.94;5018236;28;20204;-78
2022/06/19 05:14:28;;;;;;;0.40;0.40;;;20.80;66.40;;;21.30;51.07;94849.16;5050559;28;20558;-78
2022/06/19 05:16:55;;;;;;;0.40;0.40;;;20.90;66.40;;;21.39;50.73;94855.59;5051000;28;20196;-78
2022/06/19 05:19:22;;;;;;;0.30;0.30;;;21.00;66.60;;;21.50;50.89;94855.63;5050259;28;20201;-78
2022/06/19 05:21:49;;;;;;;0.38;0.38;;;21.10;66.60;;;21.58;50.62;94855.97;5050941;28;20220;-78
2022/06/19 05:24:16;;;;;;;0.30;0.30;;;21.20;66.60;;;21.67;50.80;94864.25;5050895;28;20282;-78
2022/06/19 05:26:48;;;;;;;0.43;0.43;;;21.20;66.40;;;21.76;50.85;94859.19;5050941;28;20183;-77
2022/06/19 05:29:16;;;;;;;0.40;0.40;;;21.30;66.30;;;21.84;50.37;94853.34;5048822;28;20196;-78
2022/06/19 05:31:43;;;;;;;0.30;0.30;;;21.40;66.30;;;21.93;50.79;94858.16;5050811;28;20215;-78
2022/06/19 05:34:10;;;;;;;0.30;0.30;;;21.50;66.30;;;22.00;50.59;94843.47;5015698;28;20206;-78
2022/06/19 05:36:43;;;;;;;0.30;0.30;;;21.60;66.30;;;22.11;50.76;94848.84;5036150;28;20205;-79
2022/06/19 05:39:10;;;;;;;0.40;0.40;;;21.70;66.40;;;22.19;50.47;94843.78;5050706;28;20193;-78
2022/06/19 05:41:39;;;;;;;0.40;0.40;;;21.80;66.30;;;22.27;50.53;94837.09;5049692;28;20268;-78
2022/06/19 05:44:10;;;;;;;0.32;0.32;;;21.90;66.40;;;22.35;50.53;94833.88;5030815;28;20576;-79
2022/06/19 05:46:37;;;;;;;0.40;0.40;;;22.00;66.30;;;22.42;50.42;94832.84;5014538;28;20558;-78
2022/06/19 05:49:05;;;;;;;0.30;0.30;;;22.00;66.20;;;22.52;50.75;94830.13;5049844;28;20238;-79
2022/06/19 05:51:32;;;;;;;0.40;0.40;;;22.10;66.40;;;22.61;50.54;94819.72;5017430;28;20206;-79
2022/06/19 05:54:00;;;;;;;0.30;0.30;;;22.20;66.30;;;22.68;50.71;94821.03;5053982;28;20211;-78
2022/06/19 05:56:29;;;;;;;0.40;0.40;;;22.30;66.40;;;22.78;50.60;94817.53;5070518;28;20286;-79
2022/06/19 05:58:56;;;;;;;0.40;0.40;;;22.40;66.40;;;22.85;50.46;94818.06;5068940;28;20206;-78
2022/06/19 06:01:26;;;;;;;0.50;0.50;;;22.50;66.30;;;22.96;50.92;94818.84;5033878;28;20309;-78
2022/06/19 06:03:53;;;;;;;0.30;0.30;;;22.60;66.50;;;23.06;50.58;94812.66;5049878;28;20211;-79
2022/06/19 06:06:27;;;;;;;0.30;0.30;;;22.70;66.30;;;23.16;50.56;94814.47;5051035;28;20210;-78
2022/06/19 06:08:55;;;;;;;0.30;0.30;;;22.80;66.50;;;23.25;50.24;94804.03;5052961;28;20298;-79
2022/06/19 06:11:23;;;;;;;0.30;0.30;;;22.90;66.20;;;23.36;50.34;94796.75;5061955;28;20995;-77
2022/06/19 06:13:51;;;;;;;0.30;0.30;;;23.00;66.10;;;23.52;50.41;94802.81;5034113;28;20287;-77
2022/06/19 06:16:20;;;;;;;0.35;0.35;;;23.10;66.00;;;23.63;50.27;94802.50;5053359;28;20243;-78
2022/06/19 06:18:49;;;;;;;0.30;0.30;;;23.20;66.00;;;23.74;50.04;94795.22;5039981;28;20258;-78
2022/06/19 06:21:22;;;;;;;0.30;0.30;;;23.30;66.10;;;23.87;50.01;94787.63;5055339;28;20230;-78
2022/06/19 06:23:50;;;;;;;0.30;0.30;;;23.50;66.30;;;23.98;50.21;94784.59;5053610;28;20717;-77
2022/06/19 06:26:25;;;;;;;0.40;0.40;;;23.60;66.30;;;24.10;50.01;94783.44;5054123;28;20247;-78
2022/06/19 06:28:56;;;;;;;0.43;0.43;;;23.70;66.40;;;24.23;49.60;94780.13;5063829;28;20376;-80
2022/06/19 06:31:23;;;;;;;0.40;0.40;;;23.80;66.00;;;24.34;49.44;94786.19;5059316;28;20304;-79
2022/06/19 06:33:56;;;;;;;0.40;0.40;;;23.90;66.00;;;24.47;49.45;94782.03;5048886;28;20206;-78
2022/06/19 06:36:24;;;;;;;0.50;0.50;;;24.00;65.70;;;24.58;49.30;94783.56;5072096;28;20224;-81
2022/06/19 06:38:51;;;;;;;0.60;0.60;;;24.10;65.50;;;24.70;49.03;94779.69;5071711;28;20201;-79
2022/06/19 06:41:19;;;;;;;0.32;0.32;;;24.30;65.50;;;24.82;49.43;94782.00;5064899;28;20711;-79
2022/06/19 06:43:47;;;;;;;0.30;0.30;;;24.30;65.30;;;24.91;48.94;94775.72;5055383;28;20183;-79
2022/06/19 06:46:19;;;;;;;0.50;0.50;;;24.50;65.10;;;25.02;48.34;94768.31;5073445;28;20218;-78
2022/06/19 06:48:49;;;;;;;0.50;0.50;;;24.60;64.80;;;25.14;48.14;94767.13;5053961;28;20213;-79
2022/06/19 06:51:22;;;;;;;0.40;0.40;;;24.70;64.70;;;25.24;47.99;94766.97;5053350;28;20277;-78
2022/06/19 06:53:51;;;;;;;0.22;0.22;;;24.80;64.60;;;25.37;47.53;94768.16;5043372;28;20196;-78
2022/06/19 06:56:20;;;;;;;0.40;0.40;;;24.90;64.20;;;25.49;47.50;94760.50;5033993;28;20700;-78
2022/06/19 06:58:48;;;;;;;0.30;0.30;;;25.00;64.00;;;25.60;47.39;94757.66;5073558;28;20568;-79
2022/06/19 07:01:19;;;;;;;0.40;0.40;;;25.10;64.00;;;25.73;46.89;94762.31;5054269;28;20231;-78
2022/06/19 07:03:52;;;;;;;0.30;0.30;;;25.20;63.60;;;25.84;46.55;94755.69;5051381;28;20241;-78
2022/06/19 07:06:19;;;;;;;0.40;0.40;;;25.40;63.40;;;25.95;46.80;94748.28;5050065;28;20260;-78
2022/06/19 07:08:46;;;;;;;0.30;0.30;;;25.50;63.10;;;26.04;45.47;94753.78;5052675;28;20195;-78
2022/06/19 07:11:36;;;;;;;0.55;0.55;;;25.60;62.70;;;26.15;45.74;94762.50;5052353;28;20215;-78
2022/06/19 07:14:04;;;;;;;0.55;0.55;;;25.70;62.60;;;26.26;45.89;94752.38;5034926;28;20294;-78
2022/06/19 07:16:32;;;;;;;0.30;0.30;;;25.80;62.60;;;26.36;45.59;94750.28;5053991;28;20189;-78
2022/06/19 07:18:59;;;;;;;0.30;0.30;;;25.90;62.40;;;26.43;44.85;94741.84;5052178;28;20597;-78
2022/06/19 07:21:26;;;;;;;0.30;0.30;;;26.00;62.30;;;26.51;45.36;94733.09;5035173;28;20249;-77
2022/06/19 07:23:53;;;;;;;0.30;0.30;;;26.10;62.20;;;26.57;45.25;94733.78;5053069;28;20184;-78
2022/06/19 07:26:22;;;;;;;0.30;0.30;;;26.20;62.20;;;26.69;44.82;94739.47;5036097;28;20587;-78
2022/06/19 07:28:49;;;;;;;0.30;0.30;;;26.30;61.70;;;26.77;43.86;94729.13;5051130;28;20191;-78
2022/06/19 07:31:24;;;;;;;0.30;0.30;;;26.30;61.30;;;26.86;44.69;94729.25;5035560;28;20901;-77
2022/06/19 07:33:52;;;;;;;0.28;0.28;;;26.50;61.50;;;26.91;44.61;94721.84;5035986;28;20739;-77
2022/06/19 07:36:22;;;;;;;0.25;0.25;;;26.50;61.40;;;26.99;44.21;94718.47;5051340;28;20210;-77
2022/06/19 07:38:49;;;;;;;0.30;0.30;;;26.60;61.10;;;27.04;44.05;94722.94;5052191;28;20644;-77
2022/06/19 07:41:16;;;;;;;0.28;0.28;;;26.60;61.00;;;27.13;44.25;94726.50;5071133;28;20248;-78
2022/06/19 07:43:43;;;;;;;0.30;0.30;;;26.70;61.20;;;27.19;44.13;94719.13;5042499;28;20220;-77
2022/06/19 07:46:12;;;;;;;0.30;0.30;;;26.80;61.10;;;27.26;43.77;94716.03;5038192;28;20216;-78
2022/06/19 07:51:30;;;;;;;0.30;0.30;;;26.90;61.10;;;27.37;43.84;94720.09;5054560;28;20250;-77
2022/06/19 07:53:59;;;;;;;0.32;0.32;;;27.00;60.90;;;27.42;43.33;94722.69;5071129;28;20589;-77
2022/06/19 07:56:27;;;;;;;0.30;0.30;;;27.10;60.50;;;27.47;43.38;94721.78;5054840;28;20234;-78
2022/06/19 07:58:55;;;;;;;0.28;0.28;;;27.10;60.30;;;27.52;43.44;94718.97;5044560;28;20571;-78
2022/06/19 08:01:22;;;;;;;0.30;0.30;;;27.20;60.10;;;27.56;43.25;94714.56;5069902;28;20238;-78
2022/06/19 08:04:10;;;;;;;0.20;0.20;;;27.20;60.30;;;27.64;43.25;94723.81;5065145;28;20206;-78
2022/06/19 08:06:37;;;;;;;0.30;0.30;;;27.30;60.70;;;27.69;43.92;94715.63;5049590;28;20661;-78
2022/06/19 08:09:04;;;;;;;0.20;0.20;;;27.30;60.80;;;27.75;43.96;94719.00;5048302;28;20204;-77
2022/06/19 08:11:31;;;;;;;0.30;0.30;;;27.40;60.60;;;27.80;43.86;94706.16;5015348;28;20670;-80
2022/06/19 08:13:58;;;;;;;0.30;0.30;;;27.40;60.50;;;27.86;43.68;94697.97;5041106;28;20208;-79
2022/06/19 08:16:25;;;;;;;0.30;0.30;;;27.50;60.50;;;27.89;42.93;94698.16;5070228;28;20224;-79
2022/06/19 08:18:52;;;;;;;0.30;0.30;;;27.50;60.10;;;27.93;42.91;94690.25;5021821;28;20231;-79
2022/06/19 08:21:19;;;;;;;0.30;0.30;;;27.60;60.20;;;28.01;43.19;94694.88;5053487;28;20254;-79
2022/06/19 08:23:47;;;;;;;0.40;0.40;;;27.60;60.20;;;28.07;43.28;94690.97;5053319;28;20198;-78
2022/06/19 08:26:14;;;;;;;0.30;0.30;;;27.70;60.10;;;28.13;42.52;94697.06;5048286;28;20216;-78
2022/06/19 08:28:50;;;;;;;0.30;0.30;;;27.80;59.30;;;28.19;42.10;94695.81;5021326;28;20207;-79
2022/06/19 08:31:17;;;;;;;0.30;0.30;;;27.80;59.30;;;28.25;42.51;94697.28;5051051;28;20223;-78
2022/06/19 08:33:44;;;;;;;0.40;0.40;;;27.90;59.90;;;28.33;43.00;94703.84;5071497;28;20281;-79
2022/06/19 08:36:12;;;;;;;0.30;0.30;;;27.90;60.00;;;28.39;42.94;94704.47;5045293;28;20229;-79
2022/06/19 08:38:51;;;;;;;0.30;0.30;;;28.00;59.80;;;28.44;42.21;94694.34;5050994;28;20574;-79
2022/06/19 08:41:27;;;;;;;0.40;0.40;;;28.10;59.40;;;28.47;42.14;94692.94;5066308;28;20319;-79
2022/06/19 08:44:15;;;;;;;0.30;0.30;;;28.10;59.30;;;28.51;42.22;94679.63;5070443;28;20295;-79
2022/06/19 08:47:12;;;;;;;0.32;0.32;;;28.20;59.50;;;28.55;42.56;94678.69;5059950;28;20200;-79
2022/06/19 08:49:42;;;;;;;0.30;0.30;;;28.20;59.20;;;28.62;42.35;94672.03;5041110;28;20219;-79
2022/06/19 08:52:31;;;;;;;0.30;0.30;;;28.30;59.20;;;28.65;42.33;94666.81;5058099;28;20228;-79
2022/06/19 08:55:26;;;;;;;0.30;0.30;;;28.30;59.50;;;28.69;42.54;94670.50;5034683;28;20550;-78
2022/06/19 08:58:17;;;;;;;0.20;0.20;;;28.40;59.70;;;28.75;42.77;94669.25;5049693;28;20197;-79
2022/06/19 09:01:19;;;;;;;0.30;0.30;;;28.40;59.70;;;28.80;42.65;94670.22;5061020;28;20307;-78
2022/06/19 09:07:26;;;;;;;0.32;0.32;;;28.50;59.10;;;28.88;42.06;94664.84;5052519;28;20329;-79
2022/06/19 09:10:34;;;;;;;0.30;0.30;;;28.50;59.20;;;28.96;42.64;94671.34;5049301;28;20721;-79
2022/06/19 09:13:20;;;;;;;0.30;0.30;;;28.60;59.40;;;29.02;42.09;94678.19;5037237;28;20195;-79
2022/06/19 09:16:27;;;;;;;0.30;0.30;;;28.70;59.00;;;29.07;42.11;94678.03;5064583;28;20300;-79
2022/06/19 09:19:52;;;;;;;0.30;0.30;;;28.70;58.50;;;29.15;41.68;94683.75;5050687;28;20215;-79
2022/06/19 09:22:53;;;;;;;0.30;0.30;;;28.80;58.70;;;29.23;41.75;94678.38;5052545;28;20223;-80
2022/06/19 09:25:57;;;;;;;0.40;0.40;;;28.90;58.70;;;29.30;41.60;94679.84;5057435;28;20235;-78
2022/06/19 09:28:50;;;;;;;0.22;0.22;;;28.90;58.20;;;29.34;40.81;94681.56;5050386;28;20186;-79
2022/06/19 09:31:33;;;;;;;0.40;0.40;;;29.00;57.70;;;29.32;40.41;94678.41;5030309;28;20228;-79
2022/06/19 09:34:46;;;;;;;0.30;0.30;;;29.00;57.20;;;29.36;40.95;94673.19;5030999;28;20203;-79
2022/06/19 09:37:28;;;;;;;0.20;0.20;;;29.00;57.20;;;29.37;40.79;94664.75;5031120;28;20202;-79
2022/06/19 09:40:20;;;;;;;0.20;0.20;;;29.10;57.50;;;29.44;40.68;94661.56;5047020;28;20230;-78
2022/06/19 09:43:12;;;;;;;0.40;0.40;;;29.10;57.20;;;29.47;41.12;94658.22;5034718;28;20224;-79
2022/06/19 09:46:01;;;;;;;0.30;0.30;;;29.10;57.60;;;29.54;40.58;94655.84;5066040;28;20781;-78
2022/06/19 09:48:35;;;;;;;0.20;0.20;;;29.20;57.00;;;29.61;40.44;94652.63;5049204;28;20195;-79
2022/06/19 09:51:15;;;;;;;0.30;0.30;;;29.20;57.30;;;29.67;40.11;94645.94;5026140;28;20232;-79
2022/06/19 09:53:59;;;;;;;0.30;0.30;;;29.30;56.90;;;29.76;40.06;94643.25;4997194;28;20212;-78
2022/06/19 09:56:42;;;;;;;0.20;0.20;;;29.40;56.70;;;29.82;40.11;94631.16;5031901;28;20242;-80
2022/06/19 09:59:49;;;;;;;0.30;0.30;;;29.40;56.60;;;29.89;40.52;94632.56;5015820;28;20201;-79
2022/06/19 10:02:40;;;;;;;0.32;0.32;;;29.50;56.90;;;29.92;40.28;94627.34;5029787;28;20232;-80
2022/06/19 10:05:49;;;;;;;0.40;0.40;;;29.50;56.20;;;29.99;39.99;94635.75;5043450;28;20239;-80
2022/06/19 10:08:40;;;;;;;0.22;0.22;;;29.60;57.20;;;30.06;39.76;94632.53;5022561;28;20210;-78
2022/06/19 10:11:20;;;;;;;0.30;0.30;;;29.70;55.90;;;30.14;39.89;94628.25;5033222;28;20246;-80
2022/06/19 10:14:01;;;;;;;0.20;0.20;;;29.70;56.60;;;30.20;40.19;94616.13;5033168;28;20214;-79
2022/06/19 10:17:04;;;;;;;0.40;0.40;;;29.80;56.40;;;30.26;39.85;94617.53;4993249;28;20219;-79
2022/06/19 10:20:17;;;;;;;0.25;0.25;;;29.90;56.50;;;30.33;39.74;94612.41;5036325;28;20312;-79
2022/06/19 10:23:24;;;;;;;0.20;0.20;;;29.90;56.50;;;30.42;40.14;94606.94;5033527;28;20231;-79
2022/06/19 10:26:13;;;;;;;0.30;0.30;;;30.00;56.50;;;30.52;39.50;94605.81;5041880;28;20227;-79
2022/06/19 10:29:06;;;;;;;0.30;0.30;;;30.10;56.30;;;30.61;40.33;94603.81;5050561;28;20203;-77
2022/06/19 10:32:10;;;;;;;0.30;0.30;;;30.20;56.70;;;30.70;39.78;94609.22;5035319;28;20647;-78
2022/06/19 10:34:53;;;;;;;0.40;0.40;;;30.30;56.30;;;30.78;39.58;94612.97;5052145;28;20221;-79
2022/06/19 10:37:39;;;;;;;0.30;0.30;;;30.30;55.80;;;30.88;39.37;94607.16;5047268;28;20209;-78
2022/06/19 10:40:35;;;;;;;0.28;0.28;;;30.40;56.20;;;30.95;39.44;94612.06;5058169;28;20680;-78
2022/06/19 10:43:15;;;;;;;0.30;0.30;;;30.50;55.70;;;31.04;38.42;94614.72;5052880;28;20284;-79
2022/06/19 10:45:56;;;;;;;0.30;0.30;;;30.60;54.90;;;31.12;38.26;94613.88;5052727;28;20209;-78
2022/06/19 10:48:57;;;;;;;0.30;0.30;;;30.60;54.60;;;31.21;38.58;94606.47;5072782;28;20668;-80
2022/06/19 10:51:58;;;;;;;0.30;0.30;;;30.70;55.00;;;31.28;38.57;94601.31;5073536;28;20214;-78
2022/06/19 10:54:48;;;;;;;0.30;0.30;;;30.80;54.80;;;31.39;38.68;94590.84;5068116;28;20211;-79